Time;durP1;ratioP1;P1;durP2;ratioP2;P2;SDS_P1;SDS_P2;PMS_P1;PMS_P2;Temp;Humidity;BMP_temperature;BMP_pressure;BME280_temperature;BME280_humidity;BME280_pressure;Samples;Min_cycle;Max_cycle;Signal;HPM_P1;HPM_P2
2023/10/09 00:01:59;;;;;;;2.03;1.83;;;;;13.10;96702.00;;;;5053422;28;20246;-61
2023/10/09 00:04:28;;;;;;;12.50;3.17;;;;;13.10;96695.00;;;;5053650;28;20192;-60
2023/10/09 00:06:59;;;;;;;2.80;2.30;;;;;13.00;96700.00;;;;5053370;28;20215;-60
2023/10/09 00:09:32;;;;;;;2.47;2.33;;;;;13.00;96694.00;;;;5053424;28;20181;-62
2023/10/09 00:12:00;;;;;;;1.93;1.83;;;;;13.00;96692.00;;;;5053290;28;20215;-59
2023/10/09 00:14:33;;;;;;;1.67;1.57;;;;;12.90;96692.00;;;;5053179;28;20256;-60
2023/10/09 00:17:16;;;;;;;2.67;1.80;;;;;12.90;96687.00;;;;5053257;28;20196;-60
2023/10/09 00:19:47;;;;;;;5.27;3.10;;;;;12.90;96681.00;;;;5053515;28;20180;-60
2023/10/09 00:22:25;;;;;;;5.30;2.10;;;;;13.00;96685.00;;;;5053348;28;20215;-60
2023/10/09 00:25:10;;;;;;;2.43;2.30;;;;;12.90;96682.00;;;;5053377;28;20176;-60
2023/10/09 00:27:42;;;;;;;1.53;1.53;;;;;12.70;96681.00;;;;5053131;28;20200;-60
2023/10/09 00:30:15;;;;;;;1.13;1.13;;;;;12.60;96677.00;;;;5052988;28;20180;-60
2023/10/09 00:32:44;;;;;;;1.30;1.30;;;;;12.60;96673.00;;;;5053450;28;20261;-60
2023/10/09 00:38:01;;;;;;;0.93;0.93;;;;;12.50;96678.00;;;;5052898;28;20302;-60
2023/10/09 00:40:34;;;;;;;1.20;1.13;;;;;12.40;96668.00;;;;5053795;28;20274;-60
2023/10/09 00:43:06;;;;;;;1.83;1.60;;;;;12.40;96670.00;;;;5052843;28;20211;-60
2023/10/09 00:45:39;;;;;;;1.10;1.10;;;;;12.50;96670.00;;;;5054184;28;20176;-60
2023/10/09 00:48:08;;;;;;;1.20;1.10;;;;;12.40;96667.00;;;;5057045;28;20251;-60
2023/10/09 00:50:38;;;;;;;1.50;1.40;;;;;12.40;96670.00;;;;5056187;28;20226;-60
2023/10/09 00:53:12;;;;;;;1.13;1.13;;;;;12.30;96662.00;;;;5057369;28;20212;-60
2023/10/09 00:55:45;;;;;;;1.50;1.40;;;;;12.40;96657.00;;;;5056867;28;20181;-60
2023/10/09 00:58:14;;;;;;;4.67;2.53;;;;;12.40;96656.00;;;;5057298;28;20235;-60
2023/10/09 01:00:49;;;;;;;1.57;1.47;;;;;12.40;96657.00;;;;5056551;28;20736;-60
2023/10/09 01:03:22;;;;;;;2.87;2.60;;;;;12.40;96649.00;;;;5056943;28;20188;-60
2023/10/09 01:05:57;;;;;;;2.63;2.30;;;;;12.30;96651.00;;;;5056644;28;20184;-60
2023/10/09 01:08:30;;;;;;;1.07;1.03;;;;;12.40;96647.00;;;;5056550;28;20651;-60
2023/10/09 01:11:08;;;;;;;1.20;1.20;;;;;12.30;96647.00;;;;5056608;28;20202;-60
2023/10/09 01:13:52;;;;;;;1.40;0.97;;;;;12.10;96644.00;;;;5057165;28;20206;-60
2023/10/09 01:16:22;;;;;;;2.23;1.87;;;;;12.10;96642.00;;;;5057409;28;20188;-60
2023/10/09 01:18:51;;;;;;;2.70;2.00;;;;;12.00;96639.00;;;;5056953;28;20180;-60
2023/10/09 01:21:24;;;;;;;1.83;1.73;;;;;12.00;96639.00;;;;5056639;28;20216;-60
2023/10/09 01:24:08;;;;;;;5.67;2.77;;;;;12.10;96641.00;;;;5056816;28;20267;-60
2023/10/09 01:26:44;;;;;;;13.80;2.17;;;;;12.10;96632.00;;;;5056323;28;20200;-60
2023/10/09 01:29:14;;;;;;;5.30;2.47;;;;;12.10;96631.00;;;;5054980;28;20607;-60
2023/10/09 01:31:45;;;;;;;1.33;1.33;;;;;12.10;96633.00;;;;5055602;28;20258;-60
2023/10/09 01:34:15;;;;;;;2.17;1.87;;;;;12.10;96624.00;;;;5055917;28;20582;-60
2023/10/09 01:36:42;;;;;;;0.90;0.90;;;;;12.00;96628.00;;;;5055907;28;20685;-60
2023/10/09 01:39:23;;;;;;;1.80;1.70;;;;;12.10;96624.00;;;;5056144;28;20199;-60
2023/10/09 01:41:58;;;;;;;16.03;2.30;;;;;12.10;96615.00;;;;5055947;28;20618;-60
2023/10/09 01:44:27;;;;;;;9.20;3.03;;;;;12.10;96614.00;;;;5056589;28;20267;-61
2023/10/09 01:46:57;;;;;;;6.17;1.63;;;;;12.10;96614.00;;;;5056125;28;20563;-60
2023/10/09 01:49:31;;;;;;;2.20;2.00;;;;;12.20;96610.00;;;;5056081;28;20199;-60
2023/10/09 01:52:07;;;;;;;2.30;2.10;;;;;12.20;96611.00;;;;5055934;28;20216;-60
2023/10/09 01:54:40;;;;;;;0.73;0.73;;;;;12.20;96607.00;;;;5056167;28;20263;-60
2023/10/09 01:57:12;;;;;;;9.30;2.00;;;;;12.20;96612.00;;;;5055530;28;20180;-60
2023/10/09 01:59:43;;;;;;;3.27;2.27;;;;;12.10;96606.00;;;;5055777;28;20180;-60
2023/10/09 02:02:31;;;;;;;3.37;2.40;;;;;12.10;96607.00;;;;5055420;28;20270;-60
2023/10/09 02:05:10;;;;;;;0.93;0.93;;;;;12.00;96611.00;;;;5055467;28;20196;-60
2023/10/09 02:07:51;;;;;;;2.73;2.30;;;;;11.90;96607.00;;;;5055387;28;20200;-60
2023/10/09 02:10:31;;;;;;;1.97;1.87;;;;;11.80;96608.00;;;;5055354;28;20555;-60
2023/10/09 02:13:06;;;;;;;1.10;1.10;;;;;11.90;96611.00;;;;5055323;28;20344;-60
2023/10/09 02:15:53;;;;;;;1.37;1.33;;;;;11.80;96599.00;;;;5054130;28;20599;-60
2023/10/09 02:18:39;;;;;;;1.00;1.00;;;;;11.80;96605.00;;;;5055173;28;20224;-60
2023/10/09 02:21:13;;;;;;;1.53;1.47;;;;;11.80;96599.00;;;;5055519;28;20623;-60
2023/10/09 02:23:46;;;;;;;1.13;1.13;;;;;11.70;96602.00;;;;5055191;28;20186;-60
2023/10/09 02:26:17;;;;;;;1.60;1.50;;;;;11.80;96599.00;;;;5055420;28;20184;-60
2023/10/09 02:28:44;;;;;;;1.70;1.60;;;;;11.90;96595.00;;;;5055469;28;20234;-61
2023/10/09 02:31:12;;;;;;;2.77;2.47;;;;;11.80;96584.00;;;;5053633;28;20302;-61
2023/10/09 02:33:40;;;;;;;2.10;1.87;;;;;11.80;96596.00;;;;5055042;28;20188;-61
2023/10/09 02:36:08;;;;;;;1.83;1.73;;;;;11.80;96586.00;;;;5055218;28;20558;-61
2023/10/09 02:38:38;;;;;;;2.60;1.47;;;;;12.00;96584.00;;;;5054941;28;20586;-61
2023/10/09 02:41:20;;;;;;;0.90;0.90;;;;;11.90;96584.00;;;;5054892;28;20705;-59
2023/10/09 02:43:50;;;;;;;1.00;1.00;;;;;11.90;96588.00;;;;5053663;28;20261;-60
2023/10/09 02:46:20;;;;;;;2.20;2.00;;;;;12.00;96585.00;;;;5055097;28;20223;-61
2023/10/09 02:48:50;;;;;;;1.83;1.73;;;;;12.00;96575.00;;;;5054591;28;20219;-61
2023/10/09 02:51:32;;;;;;;1.00;1.00;;;;;12.00;96583.00;;;;5054876;28;20212;-61
2023/10/09 02:54:18;;;;;;;1.33;1.23;;;;;11.90;96589.00;;;;5054654;28;20188;-59
2023/10/09 02:56:47;;;;;;;1.67;1.57;;;;;11.90;96584.00;;;;5054379;28;20199;-59
2023/10/09 02:59:16;;;;;;;3.30;2.37;;;;;11.80;96579.00;;;;5054245;28;20549;-59
2023/10/09 03:01:43;;;;;;;1.13;1.13;;;;;11.70;96581.00;;;;5054415;28;20215;-59
2023/10/09 03:04:14;;;;;;;1.93;1.73;;;;;11.70;96563.00;;;;5054301;28;20200;-59
2023/10/09 03:06:49;;;;;;;1.43;1.33;;;;;11.80;96561.00;;;;5054483;28;20547;-59
2023/10/09 03:09:17;;;;;;;3.50;2.27;;;;;11.70;96562.00;;;;5053253;28;20207;-59
2023/10/09 03:11:46;;;;;;;1.33;1.33;;;;;11.60;96558.00;;;;5054087;28;20306;-59
2023/10/09 03:14:15;;;;;;;3.60;1.87;;;;;11.60;96553.00;;;;5054133;28;20192;-59
2023/10/09 03:16:43;;;;;;;0.93;0.93;;;;;11.80;96561.00;;;;5053830;28;20200;-59
2023/10/09 03:19:13;;;;;;;2.13;2.03;;;;;11.80;96566.00;;;;5054343;28;20199;-59
2023/10/09 03:21:40;;;;;;;5.43;2.47;;;;;11.80;96555.00;;;;5053738;28;20219;-59
2023/10/09 03:24:09;;;;;;;7.13;1.83;;;;;11.90;96555.00;;;;5053786;28;20203;-59
2023/10/09 03:26:36;;;;;;;2.53;1.53;;;;;11.90;96550.00;;;;5054054;28;20200;-59
2023/10/09 03:29:06;;;;;;;1.40;1.37;;;;;12.00;96560.00;;;;5053832;28;20571;-59
2023/10/09 03:31:36;;;;;;;1.63;1.53;;;;;12.00;96557.00;;;;5053897;28;20238;-59
2023/10/09 03:34:03;;;;;;;2.30;1.97;;;;;12.00;96559.00;;;;5053871;28;20200;-59
2023/10/09 03:36:37;;;;;;;0.80;0.80;;;;;11.90;96554.00;;;;5053674;28;20273;-59
2023/10/09 03:39:18;;;;;;;2.10;1.67;;;;;11.70;96543.00;;;;5054041;28;20612;-59
2023/10/09 03:41:47;;;;;;;1.13;1.13;;;;;11.70;96540.00;;;;5053551;28;20258;-59
2023/10/09 03:44:18;;;;;;;1.33;0.90;;;;;11.70;96537.00;;;;5053397;28;20192;-59
2023/10/09 03:46:46;;;;;;;2.43;2.23;;;;;11.70;96539.00;;;;5053479;28;20266;-59
2023/10/09 03:49:22;;;;;;;1.97;1.60;;;;;11.70;96534.00;;;;5053339;28;20192;-59
2023/10/09 03:51:50;;;;;;;2.00;1.90;;;;;11.70;96537.00;;;;5053540;28;20223;-59
2023/10/09 03:54:20;;;;;;;2.27;1.87;;;;;11.60;96535.00;;;;5053426;28;20219;-59
2023/10/09 03:56:49;;;;;;;8.73;1.77;;;;;11.70;96534.00;;;;5053329;28;20196;-59
2023/10/09 03:59:17;;;;;;;1.27;1.20;;;;;11.70;96537.00;;;;5053312;28;20664;-61
2023/10/09 04:01:46;;;;;;;1.13;1.03;;;;;11.80;96540.00;;;;5051766;28;20247;-61
2023/10/09 04:04:14;;;;;;;1.63;1.53;;;;;11.70;96533.00;;;;5053329;28;20276;-60
2023/10/09 04:06:41;;;;;;;2.37;1.23;;;;;11.80;96544.00;;;;5053548;28;20235;-60
2023/10/09 04:09:29;;;;;;;7.47;1.33;;;;;11.80;96543.00;;;;5055195;28;20196;-60
2023/10/09 04:12:19;;;;;;;2.73;2.13;;;;;11.70;96541.00;;;;5054315;28;20215;-60
2023/10/09 04:14:54;;;;;;;1.63;1.53;;;;;11.60;96544.00;;;;5053197;28;20628;-60
2023/10/09 04:17:36;;;;;;;2.47;2.13;;;;;11.50;96545.00;;;;5053087;28;20347;-60
2023/10/09 04:23:04;;;;;;;2.20;1.57;;;;;11.40;96533.00;;;;5051680;28;20224;-60
2023/10/09 04:25:41;;;;;;;1.50;1.40;;;;;11.50;96525.00;;;;5053349;28;20222;-60
2023/10/09 04:28:09;;;;;;;13.33;1.57;;;;;11.50;96528.00;;;;5053286;28;20227;-60
2023/10/09 04:30:40;;;;;;;1.33;1.20;;;;;11.50;96535.00;;;;5053008;28;20201;-60
2023/10/09 04:33:27;;;;;;;2.57;1.90;;;;;11.50;96454.00;;;;5052958;28;20645;-60
2023/10/09 04:38:37;;;;;;;2.20;2.00;;;;;11.50;96521.00;;;;5053066;28;20226;-60
2023/10/09 04:41:08;;;;;;;1.40;1.30;;;;;11.60;96526.00;;;;5052957;28;20200;-61
2023/10/09 04:43:34;;;;;;;4.67;2.27;;;;;11.60;96530.00;;;;5053024;28;20656;-60
2023/10/09 04:46:12;;;;;;;1.40;1.33;;;;;11.70;96530.00;;;;5051463;28;20195;-60
2023/10/09 04:48:45;;;;;;;1.73;1.63;;;;;11.60;96542.00;;;;5052799;28;20654;-60
2023/10/09 04:51:34;;;;;;;5.87;2.33;;;;;11.40;96537.00;;;;5053518;28;20216;-61
2023/10/09 04:54:13;;;;;;;3.07;2.37;;;;;11.40;96546.00;;;;5053046;28;20527;-60
2023/10/09 04:56:52;;;;;;;12.53;1.67;;;;;11.50;96551.00;;;;5052955;28;20317;-60
2023/10/09 04:59:24;;;;;;;1.80;1.50;;;;;11.30;96545.00;;;;5053240;28;20180;-60
2023/10/09 05:01:58;;;;;;;2.30;2.20;;;;;11.30;96552.00;;;;5052596;28;20682;-60
2023/10/09 05:04:41;;;;;;;3.03;2.73;;;;;11.30;96544.00;;;;5052645;28;20200;-61
2023/10/09 05:07:49;;;;;;;2.83;2.43;;;;;11.20;96544.00;;;;5052761;28;20195;-61
2023/10/09 05:10:16;;;;;;;1.20;1.20;;;;;11.20;96548.00;;;;5052429;28;20207;-60
2023/10/09 05:12:47;;;;;;;1.63;1.53;;;;;11.20;96549.00;;;;5052448;28;20258;-60
2023/10/09 05:15:17;;;;;;;2.23;1.93;;;;;11.30;96560.00;;;;5052839;28;20188;-60
2023/10/09 05:17:51;;;;;;;1.80;1.67;;;;;11.20;96550.00;;;;5051155;28;20254;-60
2023/10/09 05:23:23;;;;;;;1.17;1.13;;;;;11.20;96549.00;;;;5052297;28;20219;-61
2023/10/09 05:25:58;;;;;;;1.80;1.70;;;;;11.30;96548.00;;;;5052790;28;20191;-60
2023/10/09 05:28:30;;;;;;;1.83;1.60;;;;;11.40;96552.00;;;;5052430;28;20208;-60
2023/10/09 05:31:08;;;;;;;1.73;1.63;;;;;11.40;96552.00;;;;5052300;28;20263;-60
2023/10/09 05:33:37;;;;;;;6.60;3.43;;;;;11.40;96554.00;;;;5055201;28;20176;-60
2023/10/09 05:36:31;;;;;;;2.73;2.30;;;;;11.40;96551.00;;;;5055950;28;20550;-60
2023/10/09 05:39:16;;;;;;;2.30;2.20;;;;;11.50;96555.00;;;;5056149;28;20181;-60
2023/10/09 05:41:47;;;;;;;2.57;2.10;;;12.40;63.70;11.50;96563.00;;;;5056119;28;20694;-60
2023/10/09 05:50:01;;;;;;;1.13;1.13;;;12.20;64.00;11.40;96554.00;;;;5051247;28;20310;-60
2023/10/09 05:52:32;;;;;;;7.80;2.90;;;12.20;64.00;11.50;96551.00;;;;5055577;28;20234;-60
2023/10/09 06:03:38;;;;;;;2.10;1.97;;;12.20;64.00;11.60;96556.00;;;;5055625;28;20177;-60
2023/10/09 06:06:06;;;;;;;3.00;2.80;;;12.30;64.10;11.70;96564.00;;;;5055659;28;20177;-60
2023/10/09 06:11:39;;;;;;;1.50;1.40;;;;;11.80;96565.00;;;;5049164;28;20336;-64
2023/10/09 06:14:12;;;;;;;1.73;1.63;;;12.50;62.90;11.90;96560.00;;;;5053789;28;20188;-64
2023/10/09 06:16:59;;;;;;;0.90;0.90;;;12.60;63.30;11.90;96564.00;;;;5053145;28;20203;-64
2023/10/09 06:19:27;;;;;;;1.70;1.37;;;12.60;63.50;12.00;96565.00;;;;5053392;28;20184;-63
2023/10/09 06:22:46;;;;;;;2.67;2.47;;;12.70;63.40;12.00;96573.00;;;;5052019;28;20219;-60
2023/10/09 06:25:13;;;;;;;1.47;1.37;;;12.70;65.60;12.10;96559.00;;;;5046145;28;20557;-59
2023/10/09 06:27:58;;;;;;;2.30;1.93;;;;;12.30;96565.00;;;;5052616;28;20215;-59
2023/10/09 06:30:26;;;;;;;1.53;1.20;;;12.90;62.70;12.50;96565.00;;;;5053367;28;20188;-60
2023/10/09 06:33:19;;;;;;;4.90;2.43;;;;;12.70;96559.00;;;;5054701;28;20295;-61
2023/10/09 06:35:53;;;;;;;1.00;1.00;;;13.30;61.00;12.60;96560.00;;;;5053247;28;20606;-60
2023/10/09 06:38:23;;;;;;;3.10;1.33;;;13.30;61.40;12.70;96540.00;;;;5052871;28;20184;-60
2023/10/09 06:43:47;;;;;;;23.93;2.47;;;13.80;59.00;13.40;96564.00;;;;5052445;28;20188;-60
2023/10/09 06:49:28;;;;;;;1.97;1.83;;;;;14.30;96568.00;;;;5061757;28;20220;-60
2023/10/09 06:51:55;;;;;;;6.00;1.70;;;;;14.60;96573.00;;;;5051100;28;20595;-60
2023/10/09 06:54:25;;;;;;;1.23;1.23;;;;;14.80;96570.00;;;;5053347;28;20194;-60
2023/10/09 07:02:26;;;;;;;3.40;1.80;;;;;15.10;96585.00;;;;5052274;28;20231;-61
2023/10/09 07:04:55;;;;;;;1.27;1.17;;;;;15.20;96585.00;;;;5055552;28;20259;-61
2023/10/09 07:07:24;;;;;;;1.80;1.47;;;;;15.40;96585.00;;;;5055643;28;20670;-60
2023/10/09 07:12:44;;;;;;;3.30;2.00;;;;;15.70;96586.00;;;;5052651;28;20634;-60
2023/10/09 07:21:01;;;;;;;2.13;1.93;;;;;16.10;96589.00;;;;5039095;28;20216;-61
2023/10/09 07:23:33;;;;;;;7.93;2.20;;;;;16.10;96585.00;;;;5052582;28;20195;-61
2023/10/09 07:26:23;;;;;;;5.37;1.47;;;;;16.10;96579.00;;;;5051452;28;20271;-61
2023/10/09 07:29:00;;;;;;;3.20;2.10;;;16.70;47.50;16.20;96585.00;;;;5052072;28;20250;-61
2023/10/09 07:31:39;;;;;;;6.60;1.90;;;16.80;47.60;16.30;96582.00;;;;5052005;28;20230;-61
2023/10/09 07:34:30;;;;;;;5.50;2.50;;;16.80;47.60;16.30;96570.00;;;;5052321;28;20191;-61
2023/10/09 07:36:57;;;;;;;3.67;1.63;;;16.90;46.90;16.50;96575.00;;;;5053511;28;20273;-61
2023/10/09 07:39:34;;;;;;;1.57;1.50;;;17.00;46.50;16.60;96578.00;;;;5052590;28;20249;-61
2023/10/09 07:42:15;;;;;;;1.70;1.60;;;17.20;46.30;16.70;96574.00;;;;5051960;28;20225;-61
2023/10/09 07:44:52;;;;;;;6.83;2.57;;;17.20;46.00;16.80;96579.00;;;;5049165;28;20282;-61
2023/10/09 07:47:45;;;;;;;27.47;2.30;;;17.30;45.20;16.80;96582.00;;;;5052091;28;20216;-61
2023/10/09 07:50:16;;;;;;;2.23;2.03;;;17.30;45.10;16.90;96578.00;;;;5051774;28;20653;-61
2023/10/09 07:52:44;;;;;;;5.17;1.63;;;;;17.00;96584.00;;;;5051051;28;20242;-61
2023/10/09 07:55:26;;;;;;;1.67;1.57;;;;;17.00;96583.00;;;;5051139;28;20564;-61
2023/10/09 07:57:53;;;;;;;0.53;0.53;;;;;17.10;96580.00;;;;5051366;28;20184;-61
2023/10/09 08:01:05;;;;;;;1.20;1.20;;;;;17.20;96583.00;;;;5051265;28;20192;-61
2023/10/09 08:03:25;;;;;;;1.40;1.30;;;;;17.40;96593.00;;;;5051627;28;20206;-61
2023/10/09 08:06:06;;;;;;;1.77;1.33;;;;;17.50;96587.00;;;;5051258;28;20196;-61
2023/10/09 08:08:39;;;;;;;14.73;2.50;;;;;17.60;96583.00;;;;5051491;28;20208;-61
2023/10/09 08:14:02;;;;;;;6.03;1.23;;;;;17.70;96587.00;;;;5050977;28;20275;-60
2023/10/09 08:16:41;;;;;;;8.63;1.90;;;;;17.80;96591.00;;;;5050994;28;20199;-60
2023/10/09 08:19:32;;;;;;;11.27;2.37;;;;;17.80;96595.00;;;;5051147;28;20184;-60
2023/10/09 08:22:37;;;;;;;8.77;2.17;;;;;17.90;96596.00;;;;5051939;28;20321;-61
2023/10/09 08:25:05;;;;;;;2.10;1.33;;;;;18.20;96601.00;;;;5051160;28;20292;-60
2023/10/09 08:27:54;;;;;;;2.53;2.10;;;;;18.20;96591.00;;;;5050969;28;20557;-61
2023/10/09 08:36:01;;;;;;;1.60;1.50;;;;;18.60;96602.00;;;;5051124;28;20192;-61
2023/10/09 08:38:33;;;;;;;1.23;1.13;;;;;18.70;96604.00;;;;5050911;28;20205;-61
2023/10/09 08:41:15;;;;;;;3.00;2.73;;;;;18.80;96609.00;;;;5051035;28;20242;-61
2023/10/09 08:43:53;;;;;;;0.80;0.80;;;;;18.90;96612.00;;;;5049706;28;20646;-61
2023/10/09 08:46:22;;;;;;;9.80;2.70;;;;;19.00;96607.00;;;;5050877;28;20188;-61
2023/10/09 08:48:52;;;;;;;7.53;2.43;;;;;19.00;96608.00;;;;5049638;28;20295;-60
2023/10/09 08:51:20;;;;;;;1.87;1.77;;;;;19.10;96618.00;;;;5051173;28;20224;-60
2023/10/09 08:53:48;;;;;;;3.30;2.20;;;;;19.20;96613.00;;;;5051193;28;20212;-60
2023/10/09 08:56:21;;;;;;;4.43;1.63;;;;;19.20;96603.00;;;;5050836;28;20219;-60
2023/10/09 08:58:51;;;;;;;9.10;2.07;;;;;19.30;96619.00;;;;5051348;28;20271;-61
2023/10/09 09:01:21;;;;;;;2.40;2.20;;;;;19.30;96622.00;;;;5050856;28;20223;-61
2023/10/09 09:03:55;;;;;;;1.83;1.73;;;;;19.40;96627.00;;;;5051015;28;20663;-61
2023/10/09 09:06:24;;;;;;;2.87;1.07;;;;;19.40;96628.00;;;;5051411;28;20190;-60
2023/10/09 09:08:54;;;;;;;17.83;2.20;;;;;19.50;96635.00;;;;5053422;28;20607;-61
2023/10/09 09:11:24;;;;;;;1.17;1.07;;;;;19.50;96646.00;;;;5054797;28;20230;-60
2023/10/09 09:14:04;;;;;;;1.97;1.60;;;;;19.60;96645.00;;;;5054469;28;20200;-60
2023/10/09 09:16:33;;;;;;;5.10;2.57;;;;;19.70;96647.00;;;;5054587;28;20281;-60
2023/10/09 09:19:17;;;;;;;6.37;2.20;;;;;19.90;96650.00;;;;5054504;28;20188;-60
2023/10/09 09:21:54;;;;;;;3.23;1.43;;;;;19.60;96647.00;;;;5054674;28;20596;-60
2023/10/09 09:24:30;;;;;;;5.77;1.77;;;;;19.70;96644.00;;;;5054027;28;20249;-60
2023/10/09 09:27:12;;;;;;;10.00;2.23;;;;;19.90;96649.00;;;;5054998;28;20198;-60
2023/10/09 09:29:41;;;;;;;1.13;1.13;;;;;19.80;96637.00;;;;5054074;28;20286;-62
2023/10/09 09:32:17;;;;;;;2.30;1.50;;;;;20.00;96633.00;;;;5054589;28;20224;-61
2023/10/09 09:34:54;;;;;;;13.13;1.83;;;;;20.30;96630.00;;;;5054324;28;20273;-61
2023/10/09 09:37:28;;;;;;;1.87;1.70;;;;;20.50;96641.00;;;;5054491;28;20246;-61
2023/10/09 09:39:58;;;;;;;1.10;1.10;;;;;20.50;96645.00;;;;5053624;28;20196;-61
2023/10/09 09:42:27;;;;;;;2.73;1.90;;;;;20.70;96644.00;;;;5054700;28;20271;-61
2023/10/09 09:44:57;;;;;;;2.17;1.73;;;;;20.90;96644.00;;;;5053801;28;20278;-61
2023/10/09 09:47:26;;;;;;;8.23;2.23;;;;;21.00;96641.00;;;;5054323;28;20659;-60
2023/10/09 09:50:00;;;;;;;21.83;2.03;;;;;21.30;96642.00;;;;5052273;28;20228;-61
2023/10/09 09:52:37;;;;;;;3.50;1.43;;;;;21.50;96635.00;;;;5054347;28;20220;-61
2023/10/09 09:55:14;;;;;;;5.80;2.20;;;;;21.80;96644.00;;;;5053708;28;20211;-62
2023/10/09 09:57:45;;;;;;;10.87;3.40;;;;;21.90;96651.00;;;;5049641;28;20191;-62
2023/10/09 10:00:28;;;;;;;5.40;1.60;;;;;22.00;96643.00;;;;5053548;28;20540;-61
2023/10/09 10:02:59;;;;;;;2.78;1.33;;;;;22.40;96639.00;;;;5053930;28;20855;-60
2023/10/09 10:05:30;;;;;;;1.65;1.48;;;;;22.20;96648.00;;;;5053801;28;20188;-61
2023/10/09 10:08:00;;;;;;;1.75;0.85;;;;;22.50;96637.00;;;;5051972;28;20223;-61
2023/10/09 10:10:52;;;;;;;1.20;1.20;;;;;22.90;96638.00;;;;5053391;28;20583;-61
2023/10/09 10:13:42;;;;;;;3.25;1.08;;;;;23.10;96635.00;;;;5053522;28;20267;-61
2023/10/09 10:16:13;;;;;;;1.60;1.50;;;;;23.10;96621.00;;;;5053269;28;20206;-61
2023/10/09 10:19:06;;;;;;;1.80;1.65;;;;;23.00;96632.00;;;;5053153;28;20266;-61
2023/10/09 10:21:42;;;;;;;4.57;1.13;;;;;23.10;96620.00;;;;5053589;28;20581;-61
2023/10/09 10:24:52;;;;;;;2.00;1.80;;;;;23.30;96632.00;;;;5047750;28;20223;-61
2023/10/09 10:27:33;;;;;;;1.30;1.30;;;;;23.40;96626.00;;;;5050641;28;20188;-61
2023/10/09 10:30:33;;;;;;;0.85;0.85;;;;;23.50;96639.00;;;;5053046;28;20210;-62
2023/10/09 10:33:09;;;;;;;2.10;1.83;;;;;23.40;96637.00;;;;5053590;28;20574;-60
2023/10/09 10:35:46;;;;;;;1.98;1.77;;;;;23.50;96634.00;;;;5053337;28;20253;-59
2023/10/09 10:38:43;;;;;;;1.58;1.48;;;;;23.40;96639.00;;;;5053593;28;20188;-60
2023/10/09 10:41:22;;;;;;;12.57;1.00;;;;;23.20;96648.00;;;;5053121;28;20298;-62
2023/10/09 10:43:59;;;;;;;13.05;1.85;;;;;23.10;96639.00;;;;5049813;28;20196;-60
2023/10/09 10:46:37;;;;;;;0.65;0.65;;;;;23.20;96641.00;;;;5053007;28;20184;-62
2023/10/09 10:49:20;;;;;;;3.60;1.67;;;;;22.80;96646.00;;;;5052966;28;20223;-62
2023/10/09 10:51:49;;;;;;;6.13;1.80;;;;;22.90;96641.00;;;;5053166;28;20266;-63
2023/10/09 10:57:28;;;;;;;14.95;1.65;;;;;23.20;96641.00;;;;5052624;28;20226;-61
2023/10/09 11:00:12;;;;;;;1.00;0.95;;;;;23.40;96649.00;;;;5052403;28;20188;-60
2023/10/09 11:02:40;;;;;;;0.85;0.85;;;;;23.40;96653.00;;;;5052474;28;20235;-61
2023/10/09 11:05:24;;;;;;;2.38;1.35;;;;;23.50;96649.00;;;;5052847;28;20279;-61
2023/10/09 11:07:58;;;;;;;1.48;1.00;;;;;23.20;96649.00;;;;5052258;28;20695;-65
2023/10/09 11:10:31;;;;;;;1.20;1.20;;;;;23.10;96654.00;;;;5052367;28;20204;-61
2023/10/09 11:15:56;;;;;;;1.08;1.08;;;;;23.20;96656.00;;;;5052311;28;20198;-61
2023/10/09 11:18:26;;;;;;;0.80;0.80;;;;;23.10;96650.00;;;;5052332;28;20600;-61
2023/10/09 11:21:23;;;;;;;0.82;0.82;;;;;23.20;96645.00;;;;5052266;28;20191;-61
2023/10/09 11:23:58;;;;;;;1.58;1.48;;;;;23.20;96652.00;;;;5052668;28;20196;-61
2023/10/09 11:26:28;;;;;;;18.98;1.67;;;;;23.00;96661.00;;;;5051051;28;20200;-61
2023/10/09 11:29:23;;;;;;;3.50;1.02;;;;;23.00;96659.00;;;;5051173;28;20254;-61
2023/10/09 11:32:05;;;;;;;6.10;1.48;;;;;22.90;96660.00;;;;5044299;28;20216;-62
2023/10/09 11:34:35;;;;;;;4.57;1.20;;;;;22.90;96665.00;;;;5050120;28;20216;-62
2023/10/09 11:37:04;;;;;;;8.57;1.35;;;;;23.00;96660.00;;;;5051528;28;20195;-62
2023/10/09 11:39:34;;;;;;;1.38;1.30;;;;;22.80;96661.00;;;;5052433;28;20188;-62
2023/10/09 11:42:07;;;;;;;4.38;2.25;;;;;22.70;96656.00;;;;5051344;28;20580;-62
2023/10/09 11:44:44;;;;;;;0.50;0.50;;;;;22.60;96655.00;;;;5051990;28;20651;-62
2023/10/09 11:47:22;;;;;;;1.48;1.33;;;;;22.70;96645.00;;;;5052000;28;20273;-62
2023/10/09 11:50:10;;;;;;;2.47;1.55;;;;;22.50;96647.00;;;;5052018;28;20212;-61
2023/10/09 11:52:56;;;;;;;1.25;1.15;;;;;22.50;96641.00;;;;5050396;28;20223;-60
2023/10/09 11:55:25;;;;;;;5.18;2.15;;;;;22.20;96634.00;;;;5051883;28;20667;-60
2023/10/09 11:57:53;;;;;;;1.70;1.52;;;;;22.40;96632.00;;;;5051395;28;20196;-62
2023/10/09 12:00:29;;;;;;;1.38;1.30;;;;;22.30;96631.00;;;;5051529;28;20192;-61
2023/10/09 12:03:04;;;;;;;1.30;1.27;;;;;22.20;96623.00;;;;5051607;28;20215;-61
2023/10/09 12:05:33;;;;;;;1.45;1.35;;;;;22.30;96629.00;;;;5047798;28;20211;-62
2023/10/09 12:08:01;;;;;;;1.30;1.25;;;;;22.20;96629.00;;;;5051631;28;20762;-62
2023/10/09 12:10:29;;;;;;;1.67;1.58;;;;;22.20;96630.00;;;;5041775;28;20741;-61
2023/10/09 12:12:58;;;;;;;2.80;2.58;;;;;22.50;96619.00;;;;5052562;28;20765;-61
2023/10/09 12:15:36;;;;;;;2.22;1.85;;;;;22.40;96610.00;;;;5052364;28;20204;-61
2023/10/09 12:18:06;;;;;;;1.33;1.23;;;;;22.30;96613.00;;;;5049249;28;20702;-61
2023/10/09 12:20:35;;;;;;;3.47;1.48;;;;;22.50;96600.00;;;;5052234;28;20573;-61
2023/10/09 12:23:05;;;;;;;1.75;1.48;;;;;22.60;96595.00;;;;5052319;28;20239;-61
2023/10/09 12:25:35;;;;;;;9.73;1.15;;;;;22.70;96578.00;;;;5052033;28;20196;-61
2023/10/09 12:28:04;;;;;;;1.17;1.08;;;;;22.90;96575.00;;;;5052195;28;20253;-61
2023/10/09 12:30:39;;;;;;;3.50;1.40;;;;;23.20;96568.00;;;;5052182;28;20216;-61
2023/10/09 12:33:08;;;;;;;0.90;0.90;;;;;23.50;96567.00;;;;5052054;28;20215;-61
2023/10/09 12:35:38;;;;;;;1.38;1.30;;;;;23.60;96576.00;;;;5051156;28;20236;-61
2023/10/09 12:38:08;;;;;;;0.93;0.85;;;;;23.40;96575.00;;;;5048432;28;20558;-61
2023/10/09 12:40:36;;;;;;;1.63;1.52;;;;;23.30;96565.00;;;;5052798;28;20185;-61
2023/10/09 12:43:05;;;;;;;1.63;1.38;;;;;23.70;96557.00;;;;5055576;28;20321;-61
2023/10/09 12:45:35;;;;;;;1.27;1.17;;;;;23.60;96560.00;;;;5056767;28;20188;-61
2023/10/09 12:48:09;;;;;;;1.90;1.45;;;;;23.80;96553.00;;;;5056191;28;20219;-61
2023/10/09 12:50:41;;;;;;;2.10;1.77;;;;;24.20;96540.00;;;;5052117;28;20216;-61
2023/10/09 12:53:10;;;;;;;7.65;1.75;;;;;24.30;96540.00;;;;5052111;28;20212;-61
2023/10/09 12:55:40;;;;;;;1.58;1.48;;;;;24.50;96553.00;;;;5056694;28;20275;-61
2023/10/09 12:58:14;;;;;;;1.35;1.25;;;;;24.00;96550.00;;;;5055994;28;20202;-61
2023/10/09 13:00:48;;;;;;;1.85;1.75;;;;;24.40;96554.00;;;;5056531;28;20195;-61
2023/10/09 13:03:21;;;;;;;0.85;0.85;;;;;25.10;96554.00;;;;5054573;28;20192;-61
2023/10/09 13:05:54;;;;;;;3.17;2.33;;;;;25.20;96559.00;;;;5056106;28;20195;-61
2023/10/09 13:08:23;;;;;;;2.97;1.30;;;;;25.60;96553.00;;;;5055993;28;20196;-61
2023/10/09 13:10:58;;;;;;;1.85;1.75;;;;;26.20;96568.00;;;;5056004;28;20558;-61
2023/10/09 13:13:40;;;;;;;10.30;2.00;;;;;26.10;96558.00;;;;5056187;28;20198;-61
2023/10/09 13:16:13;;;;;;;8.98;1.63;;;;;27.20;96552.00;;;;5056092;28;21017;-61
2023/10/09 13:18:47;;;;;;;1.45;1.17;;;;;27.60;96536.00;;;;5051534;28;20656;-61
2023/10/09 13:21:15;;;;;;;1.52;1.42;;;;;28.50;96545.00;;;;5051454;28;20248;-61
2023/10/09 13:23:46;;;;;;;2.30;1.63;;;;;28.50;96558.00;;;;5055637;28;20553;-61
2023/10/09 13:26:24;;;;;;;1.35;1.25;;;;;28.10;96565.00;;;;5055893;28;20544;-62
2023/10/09 13:28:53;;;;;;;1.45;1.20;;;;;28.50;96568.00;;;;5055835;28;20210;-61
2023/10/09 13:31:25;;;;;;;3.50;1.50;;;;;28.40;96571.00;;;;5055481;28;20228;-61
2023/10/09 13:33:55;;;;;;;2.42;1.85;;;;;28.60;96568.00;;;;5055438;28;20192;-61
2023/10/09 13:36:27;;;;;;;1.48;1.38;;;;;28.60;96581.00;;;;5055946;28;20207;-61
2023/10/09 13:38:55;;;;;;;2.13;0.95;;;;;28.30;96575.00;;;;5055787;28;20188;-61
2023/10/09 13:41:28;;;;;;;8.60;1.63;;;;;28.50;96584.00;;;;5055350;28;20240;-61
2023/10/09 13:43:57;;;;;;;1.60;1.48;;;;;28.20;96564.00;;;;5055497;28;20222;-61
2023/10/09 13:46:25;;;;;;;1.90;1.75;;;;;28.70;96568.00;;;;5055713;28;20253;-61
2023/10/09 13:48:53;;;;;;;3.58;2.10;;;;;28.10;96582.00;;;;5055205;28;20274;-61